Time;durP1;ratioP1;P1;durP2;ratioP2;P2;SDS_P1;SDS_P2;PMS_P1;PMS_P2;Temp;Humidity;BMP_temperature;BMP_pressure;BME280_temperature;BME280_humidity;BME280_pressure;Samples;Min_cycle;Max_cycle;Signal;HPM_P1;HPM_P2
2021/04/19 00:01:53;;;;;;;2.55;0.88;;;22.20;50.20;;;;;;5104125;28;20024;-38
2021/04/19 00:04:20;;;;;;;1.25;1.02;;;22.20;50.40;;;;;;5122794;28;20080;-38
2021/04/19 00:06:49;;;;;;;2.67;0.80;;;22.20;50.60;;;;;;5121978;28;20687;-38
2021/04/19 00:09:15;;;;;;;2.85;0.70;;;22.20;50.60;;;;;;5123168;28;20045;-38
2021/04/19 00:11:53;;;;;;;3.45;0.98;;;22.20;50.40;;;;;;5129375;28;20036;-39
2021/04/19 00:14:19;;;;;;;3.20;0.80;;;22.20;50.30;;;;;;5121559;28;20052;-38
2021/04/19 00:16:45;;;;;;;0.93;0.80;;;22.20;50.20;;;;;;5122960;28;20063;-38
2021/04/19 00:19:11;;;;;;;1.52;0.88;;;22.10;50.10;;;;;;5105448;28;20493;-38
2021/04/19 00:21:37;;;;;;;2.05;0.70;;;22.10;50.10;;;;;;5143676;28;20055;-39
2021/04/19 00:24:04;;;;;;;3.08;0.80;;;22.10;50.10;;;;;;5124444;28;20123;-39
2021/04/19 00:26:33;;;;;;;1.27;0.80;;;22.10;50.00;;;;;;5122956;28;20096;-37
2021/04/19 00:28:59;;;;;;;1.00;0.70;;;22.10;50.00;;;;;;5122169;28;20111;-37
2021/04/19 00:31:31;;;;;;;3.28;0.82;;;22.10;50.20;;;;;;5122849;28;20022;-37
2021/04/19 00:33:59;;;;;;;1.23;0.93;;;22.10;50.60;;;;;;5122431;28;20027;-38
2021/04/19 00:36:28;;;;;;;3.80;0.90;;;22.10;50.50;;;;;;5125196;28;20031;-37
2021/04/19 00:38:54;;;;;;;2.08;0.90;;;22.00;51.00;;;;;;5122727;28;20024;-40
2021/04/19 00:41:20;;;;;;;2.35;1.00;;;22.00;51.30;;;;;;5123020;28;20081;-37
2021/04/19 00:43:46;;;;;;;1.13;0.90;;;22.00;51.40;;;;;;5103946;28;20103;-36
2021/04/19 00:46:12;;;;;;;1.83;1.00;;;22.00;51.40;;;;;;5122204;28;20027;-37
2021/04/19 00:48:41;;;;;;;1.05;0.90;;;22.00;51.40;;;;;;5104367;28;20036;-37
2021/04/19 00:51:10;;;;;;;1.08;0.98;;;22.00;51.60;;;;;;5121917;28;20552;-37
2021/04/19 00:53:37;;;;;;;1.20;1.00;;;21.90;51.50;;;;;;5109712;28;20036;-39
2021/04/19 00:56:03;;;;;;;1.40;1.00;;;21.90;51.90;;;;;;5104623;28;20024;-37
2021/04/19 00:58:32;;;;;;;1.85;0.70;;;21.90;50.90;;;;;;5125023;28;20031;-37
2021/04/19 01:00:59;;;;;;;2.30;1.10;;;21.90;51.10;;;;;;5108195;28;20407;-37
2021/04/19 01:03:25;;;;;;;3.00;0.97;;;21.90;51.10;;;;;;5110627;27;20027;-38
2021/04/19 01:05:51;;;;;;;1.58;1.00;;;21.90;51.20;;;;;;5108090;28;20054;-37
2021/04/19 01:08:18;;;;;;;1.45;1.00;;;21.80;51.10;;;;;;5126435;28;20027;-37
2021/04/19 01:10:47;;;;;;;1.10;1.00;;;21.80;51.20;;;;;;5139753;27;20027;-37
2021/04/19 01:13:13;;;;;;;1.95;0.90;;;21.80;51.40;;;;;;5146323;27;20062;-37
2021/04/19 01:15:39;;;;;;;1.55;1.20;;;21.80;51.90;;;;;;5146702;27;20610;-37
2021/04/19 01:18:06;;;;;;;1.42;1.10;;;21.80;51.40;;;;;;5122567;28;20079;-37
2021/04/19 01:20:36;;;;;;;1.20;0.90;;;21.80;51.30;;;;;;5108552;28;20031;-38
2021/04/19 01:23:03;;;;;;;1.50;1.10;;;21.70;51.00;;;;;;5125685;28;20039;-38
2021/04/19 01:25:29;;;;;;;1.20;1.10;;;21.70;51.00;;;;;;5126160;28;20115;-38
2021/04/19 01:27:56;;;;;;;1.08;0.93;;;21.70;51.00;;;;;;5125753;28;20035;-37
2021/04/19 01:30:24;;;;;;;0.95;0.85;;;21.70;50.80;;;;;;5107692;28;20036;-37
2021/04/19 01:32:50;;;;;;;1.90;0.98;;;21.70;50.70;;;;;;5126134;28;20048;-37
2021/04/19 01:35:17;;;;;;;1.02;0.90;;;21.70;50.60;;;;;;5125402;28;20035;-37
2021/04/19 01:37:43;;;;;;;1.08;0.90;;;21.70;50.60;;;;;;5125848;28;20020;-37
2021/04/19 01:40:14;;;;;;;1.70;1.15;;;21.60;50.70;;;;;;5134184;27;20042;-37
2021/04/19 01:42:40;;;;;;;1.30;1.20;;;21.60;50.80;;;;;;5146087;27;20031;-37
2021/04/19 01:45:10;;;;;;;1.60;1.10;;;21.60;50.70;;;;;;5145561;27;20046;-37
2021/04/19 01:47:39;;;;;;;1.30;1.17;;;21.60;50.80;;;;;;5146082;27;20031;-37
2021/04/19 01:50:22;;;;;;;1.05;0.82;;;21.60;50.80;;;;;;5137103;27;20120;-37
2021/04/19 01:52:48;;;;;;;1.77;1.35;;;21.50;50.30;;;;;;5125447;28;20043;-38
2021/04/19 01:55:17;;;;;;;1.50;1.00;;;21.50;50.30;;;;;;5125243;28;20079;-37
2021/04/19 01:57:45;;;;;;;1.77;1.10;;;21.50;50.20;;;;;;5107450;28;20031;-37
2021/04/19 02:00:12;;;;;;;1.92;1.20;;;21.50;50.40;;;;;;5107090;28;20053;-39
2021/04/19 02:02:57;;;;;;;1.57;1.00;;;21.50;50.30;;;;;;5125218;28;20020;-37
2021/04/19 02:05:36;;;;;;;1.35;1.13;;;21.40;50.30;;;;;;5106545;28;20268;-37
2021/04/19 02:08:10;;;;;;;1.42;1.13;;;21.40;50.10;;;;;;5106643;28;20059;-37
2021/04/19 02:10:50;;;;;;;1.23;1.10;;;21.40;50.30;;;;;;5136513;27;20023;-37
2021/04/19 02:13:44;;;;;;;1.40;1.30;;;21.40;50.30;;;;;;5107859;28;20126;-36
2021/04/19 02:16:23;;;;;;;1.50;1.10;;;21.40;50.20;;;;;;5106400;28;20032;-37
2021/04/19 02:19:02;;;;;;;1.40;1.30;;;21.30;50.30;;;;;;5106588;28;20037;-37
2021/04/19 02:21:44;;;;;;;1.05;0.95;;;21.30;50.30;;;;;;5126934;27;20035;-37
2021/04/19 02:24:12;;;;;;;1.27;1.02;;;21.30;50.30;;;;;;5107345;28;20027;-37
2021/04/19 02:26:47;;;;;;;1.33;1.00;;;21.30;50.40;;;;;;5106416;28;20043;-37
2021/04/19 02:29:31;;;;;;;2.47;1.17;;;21.30;50.40;;;;;;5107081;28;20602;-37
2021/04/19 02:32:02;;;;;;;1.48;1.30;;;21.20;50.40;;;;;;5106361;28;20032;-45
2021/04/19 02:34:31;;;;;;;1.40;1.20;;;21.20;50.50;;;;;;5124511;28;20104;-37
2021/04/19 02:36:58;;;;;;;1.50;1.23;;;21.20;50.50;;;;;;5124478;28;20027;-37
2021/04/19 02:39:25;;;;;;;1.30;1.13;;;21.20;51.30;;;;;;5127273;27;20095;-39
2021/04/19 02:41:52;;;;;;;;;;;21.20;50.60;;;;;;5145495;27;20035;-37
2021/04/19 02:44:20;;;;;;;1.77;1.30;;;21.10;50.60;;;;;;5145093;27;19921;-37
2021/04/19 02:46:48;;;;;;;2.08;1.42;;;21.10;50.80;;;;;;5126520;27;20095;-37
2021/04/19 02:49:14;;;;;;;1.80;1.30;;;21.10;50.80;;;;;;5143528;27;20064;-37
2021/04/19 02:51:43;;;;;;;2.13;1.42;;;21.10;51.00;;;;;;5126416;27;20106;-37
2021/04/19 02:54:10;;;;;;;1.45;1.15;;;21.10;50.80;;;;;;5089904;28;20701;-37
2021/04/19 02:56:36;;;;;;;1.15;1.05;;;21.00;50.80;;;;;;5105700;28;20031;-37
2021/04/19 02:59:07;;;;;;;1.30;1.20;;;21.00;50.90;;;;;;5105842;28;20031;-37
2021/04/19 03:01:34;;;;;;;1.40;1.30;;;21.00;50.90;;;;;;5105574;28;20024;-37
2021/04/19 03:04:03;;;;;;;4.88;1.42;;;21.00;51.10;;;;;;5123880;28;20038;-36
2021/04/19 03:06:30;;;;;;;1.40;1.30;;;21.00;51.10;;;;;;5105237;28;20057;-36
2021/04/19 03:08:58;;;;;;;3.00;1.20;;;20.90;51.00;;;;;;5132595;27;20092;-37
2021/04/19 03:11:49;;;;;;;1.40;1.23;;;20.90;51.10;;;;;;5125353;27;20053;-37
2021/04/19 03:14:15;;;;;;;1.20;1.10;;;20.90;51.00;;;;;;5123931;28;20054;-37
2021/04/19 03:16:47;;;;;;;1.55;1.45;;;20.90;51.10;;;;;;5105113;28;20037;-38
2021/04/19 03:19:14;;;;;;;1.40;1.30;;;20.90;51.10;;;;;;5124833;27;20076;-37
2021/04/19 03:21:40;;;;;;;1.80;1.40;;;20.80;51.20;;;;;;5088115;28;20036;-39
2021/04/19 03:24:10;;;;;;;1.48;1.30;;;20.80;51.20;;;;;;5089399;27;20268;-37
2021/04/19 03:26:36;;;;;;;1.83;1.40;;;20.80;51.40;;;;;;5107093;28;20016;-37
2021/04/19 03:29:02;;;;;;;1.77;1.40;;;20.80;51.10;;;;;;5088391;28;20524;-36
2021/04/19 03:31:41;;;;;;;1.40;1.20;;;20.80;51.50;;;;;;5123480;28;20034;-37
2021/04/19 03:34:11;;;;;;;1.80;1.33;;;20.80;51.30;;;;;;5089446;28;20036;-37
2021/04/19 03:36:37;;;;;;;1.40;1.30;;;20.70;51.50;;;;;;5088573;28;20028;-39
2021/04/19 03:39:04;;;;;;;2.38;1.30;;;20.70;51.40;;;;;;5088501;28;20023;-37
2021/04/19 03:41:36;;;;;;;2.13;1.50;;;20.70;51.40;;;;;;5125114;27;20065;-36
2021/04/19 03:44:03;;;;;;;1.40;1.30;;;20.70;51.50;;;;;;5109704;27;20027;-37
2021/04/19 03:46:29;;;;;;;1.57;1.33;;;20.70;51.50;;;;;;5125505;28;20023;-37
2021/04/19 03:49:01;;;;;;;1.80;1.70;;;20.60;51.50;;;;;;5125227;28;20283;-37
2021/04/19 03:51:27;;;;;;;1.52;1.40;;;20.60;51.50;;;;;;5105516;28;20051;-37
2021/04/19 03:53:55;;;;;;;2.28;1.60;;;20.60;51.70;;;;;;5104590;28;20032;-37
2021/04/19 03:56:21;;;;;;;1.77;1.30;;;20.60;51.70;;;;;;5105041;28;20043;-36
2021/04/19 03:58:47;;;;;;;1.85;1.48;;;20.60;51.50;;;;;;5105212;28;20035;-37
2021/04/19 04:01:13;;;;;;;1.58;1.48;;;20.60;51.70;;;;;;5104833;28;20016;-36
2021/04/19 04:03:39;;;;;;;1.80;1.48;;;20.50;51.60;;;;;;5104374;28;20038;-38
2021/04/19 04:06:05;;;;;;;1.48;1.23;;;20.50;51.60;;;;;;5104825;28;20027;-38
2021/04/19 04:08:32;;;;;;;1.83;1.40;;;20.50;51.60;;;;;;5104863;28;20047;-37
2021/04/19 04:10:58;;;;;;;1.60;1.50;;;20.50;51.70;;;;;;5120102;28;20095;-37
2021/04/19 04:13:25;;;;;;;1.60;1.40;;;20.50;51.70;;;;;;5099191;28;20046;-36
2021/04/19 04:15:59;;;;;;;1.50;1.40;;;20.50;51.70;;;;;;5123131;28;20020;-37
2021/04/19 04:18:25;;;;;;;1.60;1.50;;;20.40;51.60;;;;;;5104965;28;20055;-37
2021/04/19 04:20:51;;;;;;;1.30;1.20;;;20.40;51.80;;;;;;5138293;28;20027;-36
2021/04/19 04:23:18;;;;;;;1.40;1.30;;;20.40;51.70;;;;;;5130965;28;20028;-37
2021/04/19 04:25:45;;;;;;;1.65;1.48;;;20.40;51.90;;;;;;5122997;28;20161;-37
2021/04/19 04:28:11;;;;;;;1.48;1.38;;;20.40;51.70;;;;;;5104456;28;20115;-38
2021/04/19 04:30:37;;;;;;;1.60;1.50;;;20.30;51.80;;;;;;5123080;28;20081;-37
2021/04/19 04:33:04;;;;;;;1.40;1.30;;;20.30;52.00;;;;;;5124266;28;20030;-36
2021/04/19 04:35:30;;;;;;;1.50;1.40;;;20.30;52.00;;;;;;5126916;28;20028;-37
2021/04/19 04:37:59;;;;;;;1.50;1.40;;;20.30;51.80;;;;;;5127112;28;20544;-37
2021/04/19 04:40:29;;;;;;;1.50;1.40;;;20.30;51.90;;;;;;5126719;28;20098;-37
2021/04/19 04:43:00;;;;;;;1.70;1.60;;;20.30;52.00;;;;;;5128073;27;20027;-37
2021/04/19 04:45:26;;;;;;;2.25;1.50;;;20.30;52.00;;;;;;5125032;28;20019;-37
2021/04/19 04:47:57;;;;;;;1.33;1.23;;;20.20;51.90;;;;;;5126439;28;20079;-37
2021/04/19 04:50:34;;;;;;;1.67;1.50;;;20.20;52.00;;;;;;5119395;27;20037;-36
2021/04/19 04:53:08;;;;;;;1.55;1.45;;;20.20;52.10;;;;;;5120228;28;20024;-37
2021/04/19 04:55:36;;;;;;;1.77;1.50;;;20.20;52.00;;;;;;5126453;28;20039;-37
2021/04/19 04:58:02;;;;;;;1.40;1.30;;;20.20;52.10;;;;;;5108288;28;20551;-36
2021/04/19 05:00:29;;;;;;;1.50;1.40;;;20.20;52.20;;;;;;5108118;28;20097;-38
2021/04/19 05:02:55;;;;;;;1.60;1.50;;;20.10;52.00;;;;;;5107932;28;20031;-36
2021/04/19 05:05:21;;;;;;;2.00;1.58;;;20.10;52.20;;;;;;5107690;28;20279;-37
2021/04/19 05:07:47;;;;;;;1.70;1.60;;;20.10;52.20;;;;;;5126327;28;20039;-37
2021/04/19 05:10:14;;;;;;;1.70;1.60;;;20.10;52.10;;;;;;5107870;28;20038;-38
2021/04/19 05:12:40;;;;;;;1.50;1.27;;;20.10;52.20;;;;;;5107505;28;20051;-39
2021/04/19 05:15:13;;;;;;;1.50;1.40;;;20.10;52.20;;;;;;5125894;28;20034;-37
2021/04/19 05:17:43;;;;;;;1.70;1.60;;;20.00;52.40;;;;;;5117100;27;20033;-37
2021/04/19 05:20:10;;;;;;;1.67;1.50;;;20.00;52.30;;;;;;5135527;27;20404;-37
2021/04/19 05:22:36;;;;;;;1.73;1.38;;;20.00;53.00;;;;;;5119612;28;20024;-36
2021/04/19 05:25:03;;;;;;;1.60;1.50;;;20.00;52.30;;;;;;5105438;28;20060;-36
2021/04/19 05:27:30;;;;;;;1.40;1.30;;;20.00;52.30;;;;;;5087133;28;20031;-36
2021/04/19 05:29:56;;;;;;;1.60;1.47;;;20.00;52.40;;;;;;5087330;28;20040;-38
2021/04/19 05:32:22;;;;;;;1.60;1.50;;;20.00;52.40;;;;;;5105233;28;20035;-37
2021/04/19 05:34:51;;;;;;;1.50;1.40;;;19.90;52.50;;;;;;5086594;28;20032;-36
2021/04/19 05:37:18;;;;;;;5.55;1.50;;;19.90;52.40;;;;;;5087130;28;20073;-36
2021/04/19 05:39:45;;;;;;;1.60;1.50;;;19.90;52.60;;;;;;5096914;27;20579;-37
2021/04/19 05:42:13;;;;;;;1.75;1.55;;;19.90;53.00;;;;;;5146250;27;20062;-37
2021/04/19 05:44:39;;;;;;;1.50;1.40;;;19.90;52.50;;;;;;5127205;27;20461;-37
2021/04/19 05:47:06;;;;;;;1.60;1.50;;;19.90;52.40;;;;;;5110663;27;20072;-37
2021/04/19 05:49:32;;;;;;;1.60;1.50;;;19.90;52.60;;;;;;5141713;27;20090;-37
2021/04/19 05:52:00;;;;;;;2.17;1.30;;;19.80;52.40;;;;;;5125516;28;20023;-36
2021/04/19 05:54:26;;;;;;;1.85;1.63;;;19.80;52.60;;;;;;5106779;28;20027;-36
2021/04/19 05:57:29;;;;;;;1.95;1.75;;;19.80;52.50;;;;;;5125628;28;20030;-37
2021/04/19 05:59:56;;;;;;;1.75;1.65;;;19.80;52.50;;;;;;5125337;28;20073;-36
2021/04/19 06:02:57;;;;;;;1.70;1.60;;;19.80;52.70;;;;;;5125311;28;20167;-36
2021/04/19 06:05:26;;;;;;;1.80;1.70;;;19.80;52.50;;;;;;5041187;28;20061;-36
2021/04/19 06:08:02;;;;;;;1.95;1.52;;;19.80;52.80;;;;;;5041716;28;20040;-37
2021/04/19 06:10:47;;;;;;;2.20;1.50;;;19.80;52.90;;;;;;5041566;28;20049;-37
2021/04/19 06:13:15;;;;;;;1.52;1.42;;;19.80;52.90;;;;;;5024923;28;20627;-37
2021/04/19 06:15:41;;;;;;;1.52;1.42;;;19.70;52.70;;;;;;5024716;28;20072;-37
2021/04/19 06:18:09;;;;;;;1.88;1.65;;;19.70;52.80;;;;;;5024944;28;20044;-37
2021/04/19 06:20:35;;;;;;;1.80;1.70;;;19.70;53.30;;;;;;5025019;28;20530;-36
2021/04/19 06:23:01;;;;;;;1.90;1.70;;;19.70;52.90;;;;;;5034284;28;20036;-36
2021/04/19 06:25:27;;;;;;;1.60;1.50;;;19.60;52.80;;;;;;5060975;28;20033;-36
2021/04/19 06:28:06;;;;;;;1.17;1.08;;;19.60;52.90;;;;;;5061429;28;20061;-36
2021/04/19 06:30:40;;;;;;;1.58;1.48;;;19.60;52.80;;;;;;5061367;28;20036;-39
2021/04/19 06:33:06;;;;;;;1.52;1.42;;;19.60;52.90;;;;;;5061005;28;20031;-38
2021/04/19 06:35:32;;;;;;;1.60;1.50;;;19.60;52.90;;;;;;5060740;28;20037;-36
2021/04/19 06:37:59;;;;;;;1.67;1.58;;;19.60;52.90;;;;;;5061056;28;20033;-37
2021/04/19 06:40:25;;;;;;;2.15;1.70;;;19.60;53.20;;;;;;5057987;28;20029;-37
2021/04/19 06:42:56;;;;;;;1.60;1.50;;;19.60;53.00;;;;;;5120579;28;20031;-37
2021/04/19 06:45:22;;;;;;;1.65;1.45;;;19.60;53.30;;;;;;5124158;28;20484;-36
2021/04/19 06:47:51;;;;;;;1.92;1.60;;;19.60;53.30;;;;;;5122849;28;20061;-37
2021/04/19 06:50:17;;;;;;;1.80;1.70;;;19.60;53.20;;;;;;5113816;28;20032;-36
2021/04/19 06:52:47;;;;;;;1.52;1.42;;;19.50;53.20;;;;;;5096575;28;20051;-40
2021/04/19 06:55:15;;;;;;;2.22;1.30;;;19.50;53.00;;;;;;5082696;28;20039;-37
2021/04/19 06:57:43;;;;;;;1.52;1.42;;;19.50;53.20;;;;;;5083540;28;20017;-36
2021/04/19 07:00:10;;;;;;;2.15;1.88;;;19.50;53.20;;;;;;5082165;28;20043;-37
2021/04/19 07:03:12;;;;;;;1.73;1.63;;;19.50;53.20;;;;;;5065325;28;20032;-37
2021/04/19 07:05:38;;;;;;;1.70;1.50;;;19.40;54.00;;;;;;5080040;28;20028;-37
2021/04/19 07:08:11;;;;;;;1.63;1.50;;;19.40;53.20;;;;;;5080524;28;20042;-37
2021/04/19 07:10:37;;;;;;;1.30;1.20;;;19.40;53.30;;;;;;5096297;28;20043;-37
2021/04/19 07:13:08;;;;;;;1.88;1.50;;;19.40;53.50;;;;;;5083796;28;20040;-36
2021/04/19 07:15:45;;;;;;;1.60;1.50;;;19.40;53.50;;;;;;5100648;28;20144;-37
2021/04/19 07:18:11;;;;;;;1.65;1.25;;;19.40;53.50;;;;;;5099841;28;20020;-36
2021/04/19 07:20:38;;;;;;;1.90;1.70;;;19.40;53.50;;;;;;5087280;28;20037;-36
2021/04/19 07:23:04;;;;;;;2.10;1.45;;;19.30;53.50;;;;;;5065035;28;20507;-36
2021/04/19 07:25:31;;;;;;;2.00;1.53;;;19.30;53.70;;;;;;5068928;28;20021;-37
2021/04/19 07:27:58;;;;;;;1.77;1.67;;;19.30;53.60;;;;;;5043896;28;20041;-37
2021/04/19 07:30:24;;;;;;;;;;;19.30;53.60;;;;;;5044162;28;20043;-37
2021/04/19 07:32:50;;;;;;;1.48;1.38;;;19.30;53.70;;;;;;5060175;28;19909;-38
2021/04/19 07:35:18;;;;;;;3.42;1.92;;;19.20;53.60;;;;;;5043207;28;20033;-36
2021/04/19 07:38:00;;;;;;;1.83;1.73;;;19.30;53.90;;;;;;5043638;28;20021;-37
2021/04/19 07:40:34;;;;;;;1.55;1.45;;;19.30;53.90;;;;;;5051356;28;20033;-36
2021/04/19 07:43:09;;;;;;;1.65;1.55;;;19.20;53.80;;;;;;5062918;28;20079;-38
2021/04/19 07:45:35;;;;;;;1.58;1.48;;;19.20;53.50;;;;;;5062563;28;20082;-36
2021/04/19 07:48:01;;;;;;;1.80;1.70;;;19.20;53.90;;;;;;5062528;28;20557;-39
2021/04/19 07:50:27;;;;;;;1.65;1.55;;;19.20;53.90;;;;;;5085648;28;20051;-37
2021/04/19 07:52:55;;;;;;;1.88;1.77;;;19.20;53.90;;;;;;5094218;28;20073;-37
2021/04/19 07:55:38;;;;;;;1.83;1.73;;;19.20;54.00;;;;;;5082886;28;20028;-36
2021/04/19 07:58:08;;;;;;;1.70;1.60;;;19.20;53.90;;;;;;5082732;28;20075;-37
2021/04/19 08:00:36;;;;;;;1.67;1.58;;;19.20;54.10;;;;;;5082887;28;20020;-36
2021/04/19 08:03:10;;;;;;;2.45;2.10;;;19.10;53.90;;;;;;5082443;28;20091;-36
2021/04/19 08:05:38;;;;;;;2.25;1.60;;;19.10;54.20;;;;;;5082739;28;20021;-36
2021/04/19 08:08:05;;;;;;;1.83;1.73;;;19.10;54.00;;;;;;5084080;28;20039;-36
2021/04/19 08:10:31;;;;;;;1.80;1.70;;;19.10;54.10;;;;;;5086929;28;20032;-36
2021/04/19 08:13:05;;;;;;;2.45;1.65;;;19.10;54.30;;;;;;5105816;28;20271;-36
2021/04/19 08:15:31;;;;;;;1.73;1.63;;;19.10;54.10;;;;;;5127241;27;20027;-37
2021/04/19 08:18:02;;;;;;;1.75;1.65;;;19.00;54.10;;;;;;5122420;28;20024;-36
2021/04/19 08:20:28;;;;;;;1.75;1.65;;;19.10;54.20;;;;;;5139145;27;20028;-37
2021/04/19 08:23:12;;;;;;;1.83;1.73;;;19.10;54.40;;;;;;5138892;27;20024;-36
2021/04/19 08:25:40;;;;;;;1.77;1.67;;;19.00;54.30;;;;;;5127226;28;20023;-36
2021/04/19 08:28:09;;;;;;;1.92;1.77;;;19.00;54.30;;;;;;5126584;28;20369;-36
2021/04/19 08:30:35;;;;;;;1.95;1.80;;;19.00;54.30;;;;;;5127202;28;20062;-36
2021/04/19 08:33:01;;;;;;;1.77;1.67;;;19.00;54.20;;;;;;5115846;28;20028;-36
2021/04/19 08:35:29;;;;;;;1.50;1.40;;;19.00;54.30;;;;;;5122040;28;20024;-37
2021/04/19 08:37:57;;;;;;;2.75;1.65;;;19.00;54.40;;;;;;5106365;28;20024;-37
2021/04/19 08:40:28;;;;;;;1.88;1.73;;;18.90;54.40;;;;;;5117974;27;20045;-37
2021/04/19 08:42:54;;;;;;;2.08;1.70;;;18.90;54.40;;;;;;5147125;27;20023;-36
2021/04/19 08:45:20;;;;;;;3.35;1.90;;;18.90;54.50;;;;;;5129096;27;20031;-36
2021/04/19 08:47:47;;;;;;;1.92;1.83;;;18.90;54.50;;;;;;5128653;27;20681;-37
2021/04/19 08:50:27;;;;;;;1.80;1.70;;;18.90;54.70;;;;;;5147338;27;20046;-36
2021/04/19 08:52:54;;;;;;;1.95;1.85;;;18.80;54.70;;;;;;5122111;28;20083;-36
2021/04/19 08:55:22;;;;;;;1.63;1.52;;;18.80;54.60;;;;;;5108381;28;20031;-36
2021/04/19 08:57:48;;;;;;;2.10;1.95;;;18.80;54.70;;;;;;5126362;28;20024;-37
2021/04/19 09:00:17;;;;;;;1.33;1.23;;;18.80;54.80;;;;;;5091301;28;20099;-36
2021/04/19 09:02:43;;;;;;;1.80;1.70;;;18.80;54.60;;;;;;5116083;27;20035;-38
2021/04/19 09:05:14;;;;;;;1.75;1.65;;;18.80;54.80;;;;;;5128599;27;20030;-36
2021/04/19 09:07:42;;;;;;;2.00;1.90;;;18.80;54.70;;;;;;5146704;27;20027;-37
2021/04/19 09:10:11;;;;;;;1.88;1.77;;;18.80;54.80;;;;;;5138564;27;20031;-36
2021/04/19 09:12:37;;;;;;;2.60;1.83;;;18.70;54.70;;;;;;5126151;28;20056;-36
2021/04/19 09:15:26;;;;;;;1.98;1.88;;;18.70;54.70;;;;;;5126507;28;20073;-36
2021/04/19 09:18:19;;;;;;;2.03;1.83;;;18.70;54.70;;;;;;5139912;27;20881;-36
2021/04/19 09:20:48;;;;;;;3.35;2.00;;;18.70;54.80;;;;;;5121598;27;20091;-37
2021/04/19 09:23:31;;;;;;;2.13;1.92;;;18.60;55.10;;;;;;5119456;27;20094;-37
2021/04/19 09:25:58;;;;;;;1.90;1.80;;;18.70;55.00;;;;;;5105734;28;20031;-38
2021/04/19 09:28:40;;;;;;;1.83;1.73;;;18.60;55.00;;;;;;5105319;28;20715;-36
2021/04/19 09:31:10;;;;;;;2.28;2.08;;;18.60;55.00;;;;;;5105834;28;20087;-37
2021/04/19 09:33:36;;;;;;;2.05;1.80;;;18.60;55.20;;;;;;5136017;27;20019;-37
2021/04/19 09:36:03;;;;;;;1.65;1.35;;;18.60;55.10;;;;;;5146578;27;20035;-36
2021/04/19 09:38:40;;;;;;;2.13;1.92;;;18.50;55.10;;;;;;5146390;27;20031;-37
2021/04/19 09:41:11;;;;;;;2.15;1.95;;;18.50;55.60;;;;;;5129925;27;20876;-37
2021/04/19 09:43:37;;;;;;;1.90;1.80;;;18.50;55.20;;;;;;5126179;28;20107;-36
2021/04/19 09:46:04;;;;;;;2.00;1.90;;;18.50;55.30;;;;;;5107472;28;20028;-38
2021/04/19 09:48:31;;;;;;;1.90;1.80;;;18.40;55.20;;;;;;5125303;28;20035;-37
2021/04/19 09:51:21;;;;;;;2.05;1.95;;;18.50;55.20;;;;;;5125792;28;20260;-36
2021/04/19 09:53:54;;;;;;;1.90;1.80;;;18.50;55.30;;;;;;5098341;28;20377;-36
2021/04/19 09:56:22;;;;;;;2.05;1.95;;;18.40;55.40;;;;;;5105274;28;20024;-36
2021/04/19 09:58:48;;;;;;;1.92;1.83;;;18.40;55.30;;;;;;5104954;28;20024;-36
2021/04/19 10:01:15;;;;;;;2.10;1.90;;;18.30;55.40;;;;;;5105223;28;20055;-36
2021/04/19 10:03:41;;;;;;;1.63;1.52;;;18.30;55.40;;;;;;5118395;27;20027;-36
2021/04/19 10:06:07;;;;;;;2.03;1.83;;;18.40;55.50;;;;;;5146287;27;20028;-36
2021/04/19 10:08:35;;;;;;;1.80;1.70;;;18.40;55.50;;;;;;5127230;27;20023;-36
2021/04/19 10:11:02;;;;;;;2.08;1.88;;;18.30;55.60;;;;;;5129959;27;20074;-37
2021/04/19 10:13:32;;;;;;;2.50;1.83;;;18.30;55.60;;;;;;5125023;27;20073;-36
2021/04/19 10:16:11;;;;;;;1.88;1.77;;;18.30;55.70;;;;;;5107009;28;20035;-36
2021/04/19 10:18:39;;;;;;;2.22;2.10;;;18.30;55.60;;;;;;5124955;28;20035;-36
2021/04/19 10:21:06;;;;;;;1.95;1.75;;;18.30;55.50;;;;;;5124968;28;20035;-37
2021/04/19 10:23:38;;;;;;;1.80;1.70;;;18.20;55.60;;;;;;5110919;28;20028;-36
2021/04/19 10:26:05;;;;;;;1.88;1.77;;;18.20;55.70;;;;;;5104744;28;20086;-36
2021/04/19 10:28:35;;;;;;;2.15;1.95;;;18.20;55.60;;;;;;5104488;28;20036;-36
2021/04/19 10:31:15;;;;;;;2.53;2.10;;;18.20;55.60;;;;;;5119313;28;20050;-36
2021/04/19 10:33:43;;;;;;;1.92;1.83;;;18.20;55.60;;;;;;5136468;27;20030;-37
2021/04/19 10:36:29;;;;;;;1.98;1.83;;;18.10;55.70;;;;;;5127028;27;20086;-36
2021/04/19 10:38:57;;;;;;;2.00;1.90;;;18.10;55.70;;;;;;5126734;27;20044;-36
2021/04/19 10:41:36;;;;;;;2.20;2.00;;;18.10;55.70;;;;;;5143309;27;20023;-36
2021/04/19 10:44:03;;;;;;;2.35;2.00;;;18.10;55.80;;;;;;5145228;27;20027;-36
2021/04/19 10:46:32;;;;;;;2.25;2.05;;;18.10;55.70;;;;;;5126788;27;20031;-36
2021/04/19 10:49:00;;;;;;;2.20;2.00;;;18.10;55.80;;;;;;5144771;27;20511;-37
2021/04/19 10:51:30;;;;;;;2.20;2.00;;;18.10;55.70;;;;;;5145348;27;20029;-36
2021/04/19 10:53:59;;;;;;;2.10;1.90;;;18.00;55.90;;;;;;5108869;28;20666;-36
2021/04/19 10:56:25;;;;;;;2.42;1.58;;;18.00;55.90;;;;;;5124646;28;20035;-36
2021/04/19 10:58:54;;;;;;;1.70;1.60;;;18.00;55.80;;;;;;5124185;28;20020;-36
2021/04/19 11:01:24;;;;;;;1.80;1.70;;;18.00;55.80;;;;;;5106275;28;20038;-36
2021/04/19 11:03:51;;;;;;;2.05;1.90;;;18.00;55.90;;;;;;5141806;27;20083;-37
2021/04/19 11:06:17;;;;;;;1.25;1.15;;;18.00;56.40;;;;;;5126552;27;20497;-36
2021/04/19 11:08:59;;;;;;;2.20;2.00;;;18.00;55.90;;;;;;5144662;27;20040;-36
2021/04/19 11:11:31;;;;;;;1.73;1.63;;;17.90;55.90;;;;;;5129907;27;20031;-36
2021/04/19 11:14:14;;;;;;;2.13;1.73;;;17.90;56.00;;;;;;5124215;28;20040;-36
2021/04/19 11:16:58;;;;;;;1.85;1.75;;;17.90;56.00;;;;;;5124531;28;20019;-36
2021/04/19 11:19:31;;;;;;;2.10;1.90;;;17.90;55.90;;;;;;5126585;27;20055;-36
2021/04/19 11:21:57;;;;;;;2.08;1.90;;;17.90;56.20;;;;;;5123999;28;20034;-37
2021/04/19 11:24:36;;;;;;;1.93;1.83;;;17.80;56.10;;;;;;5123864;28;20036;-36
2021/04/19 11:27:07;;;;;;;1.60;1.50;;;17.90;56.10;;;;;;5089717;28;20298;-37
2021/04/19 11:29:41;;;;;;;1.80;1.70;;;17.80;56.00;;;;;;5123905;28;20131;-35
2021/04/19 11:32:08;;;;;;;1.90;1.80;;;17.80;56.10;;;;;;5108360;27;20077;-36
2021/04/19 11:34:39;;;;;;;1.80;1.70;;;17.80;56.10;;;;;;5144456;27;20088;-36
2021/04/19 11:37:06;;;;;;;1.80;1.70;;;17.80;56.10;;;;;;5144573;27;20055;-36
2021/04/19 11:39:41;;;;;;;1.92;1.83;;;17.80;56.10;;;;;;5140978;27;20039;-36
2021/04/19 11:42:27;;;;;;;2.30;2.10;;;17.80;56.20;;;;;;5123472;28;20031;-36
2021/04/19 11:44:53;;;;;;;2.28;2.08;;;17.70;56.10;;;;;;5123773;28;20507;-35
2021/04/19 11:47:20;;;;;;;1.90;1.80;;;17.70;56.20;;;;;;5123820;28;20539;-36
2021/04/19 11:49:50;;;;;;;1.88;1.77;;;17.70;56.30;;;;;;5123489;28;20038;-36
2021/04/19 11:52:16;;;;;;;1.95;1.80;;;17.70;56.20;;;;;;5120024;28;20024;-36
2021/04/19 11:54:42;;;;;;;2.45;2.25;;;17.70;56.20;;;;;;5103358;28;20052;-38
2021/04/19 11:57:08;;;;;;;2.10;1.80;;;17.60;56.30;;;;;;5103244;28;20384;-36
2021/04/19 11:59:34;;;;;;;1.70;1.60;;;17.70;56.20;;;;;;5103038;28;20047;-36
2021/04/19 12:02:04;;;;;;;1.70;1.60;;;17.70;56.30;;;;;;5106941;28;20099;-36
2021/04/19 12:04:30;;;;;;;2.10;1.90;;;17.60;56.30;;;;;;5144195;28;20027;-36
2021/04/19 12:06:57;;;;;;;2.20;1.73;;;17.60;56.40;;;;;;5144064;28;20024;-36
2021/04/19 12:09:24;;;;;;;2.28;2.08;;;17.60;56.30;;;;;;5141619;28;20034;-36
2021/04/19 12:11:51;;;;;;;1.70;1.60;;;17.60;56.40;;;;;;5122680;28;20038;-37
2021/04/19 12:14:17;;;;;;;1.80;1.70;;;17.60;56.40;;;;;;5123470;28;20069;-36
2021/04/19 12:16:44;;;;;;;1.52;1.25;;;17.60;56.40;;;;;;5105396;28;20080;-36
2021/04/19 12:19:10;;;;;;;1.85;1.75;;;17.60;56.40;;;;;;5122885;28;20181;-36
2021/04/19 12:21:36;;;;;;;2.00;1.90;;;17.60;56.50;;;;;;5123347;28;20024;-36
2021/04/19 12:24:03;;;;;;;2.00;1.90;;;17.50;56.40;;;;;;5123511;28;20039;-36
2021/04/19 12:26:29;;;;;;;2.67;2.30;;;17.60;56.40;;;;;;5123425;28;20063;-36
2021/04/19 12:28:56;;;;;;;2.10;1.90;;;17.60;56.30;;;;;;5123517;28;20035;-36
2021/04/19 12:31:22;;;;;;;1.83;1.73;;;17.50;56.30;;;;;;5123110;28;20125;-36
2021/04/19 12:33:49;;;;;;;2.05;1.92;;;17.50;56.40;;;;;;5140499;28;20023;-36
2021/04/19 12:36:16;;;;;;;2.03;1.85;;;17.50;56.40;;;;;;5141012;28;20038;-36
2021/04/19 12:38:43;;;;;;;2.00;1.85;;;17.50;56.40;;;;;;5143600;28;20031;-36
2021/04/19 12:41:09;;;;;;;2.13;1.92;;;17.50;56.50;;;;;;5126566;28;20020;-36
2021/04/19 12:43:35;;;;;;;1.92;1.70;;;17.50;56.50;;;;;;5104996;28;20041;-36
2021/04/19 12:46:01;;;;;;;2.03;1.85;;;17.50;57.10;;;;;;5123383;28;20065;-37
2021/04/19 12:48:27;;;;;;;2.55;1.85;;;17.50;56.50;;;;;;5123225;28;20043;-36
2021/04/19 12:50:54;;;;;;;2.15;1.95;;;17.50;56.60;;;;;;5122633;28;20031;-36
2021/04/19 12:53:20;;;;;;;1.92;1.75;;;17.50;56.50;;;;;;5111282;28;20024;-36
2021/04/19 12:55:46;;;;;;;1.92;1.83;;;17.50;56.50;;;;;;5106688;28;20067;-36
2021/04/19 12:58:13;;;;;;;2.20;2.00;;;17.50;56.50;;;;;;5106529;28;20059;-36
2021/04/19 13:00:39;;;;;;;1.70;1.60;;;17.50;56.40;;;;;;5088125;28;20053;-36